Time;durP1;ratioP1;P1;durP2;ratioP2;P2;SDS_P1;SDS_P2;PMS_P1;PMS_P2;Temp;Humidity;BMP_temperature;BMP_pressure;BME280_temperature;BME280_humidity;BME280_pressure;Samples;Min_cycle;Max_cycle;Signal;HPM_P1;HPM_P2
2023/12/13 00:01:44;;;;;;;11.85;3.00;;;;;;;9.67;100.00;98189.84;12241942;19;20014;-83
2023/12/13 00:05:46;;;;;;;8.90;3.23;;;;;;;9.71;100.00;98185.41;12226848;19;20041;-82
2023/12/13 00:09:48;;;;;;;8.57;2.60;;;;;;;9.72;100.00;98181.53;12243376;19;20015;-82
2023/12/13 00:13:54;;;;;;;6.47;2.60;;;;;;;9.77;100.00;98182.34;12244647;19;20072;-83
2023/12/13 00:17:57;;;;;;;6.88;2.33;;;;;;;9.80;100.00;98169.94;12211537;19;20035;-86
2023/12/13 00:21:59;;;;;;;5.53;1.92;;;;;;;9.83;100.00;98172.13;12232214;19;20104;-84
2023/12/13 00:26:02;;;;;;;4.70;2.03;;;;;;;9.80;100.00;98173.50;12213408;19;20010;-83
2023/12/13 00:30:05;;;;;;;7.05;1.67;;;;;;;9.84;100.00;98168.25;12216047;19;20011;-85
2023/12/13 00:34:06;;;;;;;4.82;1.75;;;;;;;9.86;100.00;98168.00;12238169;19;20010;-85
2023/12/13 00:38:09;;;;;;;4.97;1.42;;;;;;;9.83;100.00;98163.88;12237746;19;20010;-84
2023/12/13 00:42:12;;;;;;;5.57;2.05;;;;;;;9.89;100.00;98171.00;12218871;19;20010;-85
2023/12/13 00:46:19;;;;;;;6.97;2.00;;;;;;;9.87;100.00;98167.69;12238636;19;20010;-83
2023/12/13 00:50:22;;;;;;;8.65;1.77;;;;;;;9.85;100.00;98180.94;12221324;19;20010;-84
2023/12/13 00:54:24;;;;;;;7.80;1.98;;;;;;;9.81;100.00;98171.59;12201490;19;20018;-83
2023/12/13 00:58:26;;;;;;;;;;;;;;;9.80;100.00;98169.94;12219167;19;20366;-83
2023/12/13 01:02:28;;;;;;;5.00;1.58;;;;;;;9.85;100.00;98169.09;12216870;19;19931;-83
2023/12/13 01:06:30;;;;;;;9.00;2.10;;;;;;;9.86;100.00;98165.25;12193699;19;20002;-84
2023/12/13 01:10:32;;;;;;;8.15;2.40;;;;;;;9.84;100.00;98162.75;12214201;19;20014;-83
2023/12/13 01:14:33;;;;;;;6.10;2.20;;;;;;;9.86;100.00;98176.25;12243010;19;20029;-82
2023/12/13 01:18:36;;;;;;;7.95;2.10;;;;;;;9.73;100.00;98164.78;12200514;19;20634;-83
2023/12/13 01:22:38;;;;;;;8.10;2.42;;;;;;;9.54;100.00;98175.59;12213328;19;20006;-83
2023/12/13 01:26:40;;;;;;;4.70;1.92;;;;;;;9.44;100.00;98172.91;12196642;19;20054;-84
2023/12/13 01:30:41;;;;;;;3.17;1.30;;;;;;;9.29;100.00;98175.72;12206332;19;20469;-81
2023/12/13 01:34:43;;;;;;;8.23;1.98;;;;;;;9.19;100.00;98179.34;12205225;19;20010;-82
2023/12/13 01:38:45;;;;;;;9.82;2.83;;;;;;;9.09;100.00;98180.19;12180683;19;20041;-82
2023/12/13 01:42:47;;;;;;;5.10;1.73;;;;;;;9.09;100.00;98179.38;12204163;19;20839;-83
2023/12/13 01:46:49;;;;;;;6.65;1.70;;;;;;;9.04;100.00;98176.63;12211802;19;20006;-83
2023/12/13 01:50:53;;;;;;;6.05;1.92;;;;;;;9.02;100.00;98187.09;12191074;19;20026;-84
2023/12/13 01:54:56;;;;;;;5.82;1.77;;;;;;;8.97;100.00;98185.16;12205388;19;20010;-83
2023/12/13 01:58:58;;;;;;;4.05;1.52;;;;;;;8.90;100.00;98190.97;12202109;19;20023;-82
2023/12/13 02:03:00;;;;;;;5.15;1.70;;;;;;;8.92;100.00;98189.84;12182154;19;20025;-82
2023/12/13 02:07:02;;;;;;;9.63;1.53;;;;;;;8.89;100.00;98185.72;12203777;19;20006;-83
2023/12/13 02:11:04;;;;;;;4.70;1.70;;;;;;;8.94;100.00;98188.47;12202657;19;20070;-82
2023/12/13 02:15:06;;;;;;;7.60;2.40;;;;;;;9.02;100.00;98181.59;12179293;19;20015;-83
2023/12/13 02:19:10;;;;;;;6.93;2.40;;;;;;;9.12;100.00;98174.13;12201499;19;20895;-83
2023/12/13 02:23:12;;;;;;;8.20;2.35;;;;;;;9.26;100.00;98181.78;12201471;19;20021;-82
2023/12/13 02:27:14;;;;;;;6.35;1.73;;;;;;;9.28;100.00;98179.56;12181165;19;20019;-82
2023/12/13 02:31:16;;;;;;;4.55;1.55;;;;;;;9.20;100.00;98170.00;12200524;19;20018;-83
2023/12/13 02:35:18;;;;;;;4.45;2.35;;;;;;;9.09;100.00;98169.19;12195602;19;20062;-81
2023/12/13 02:39:20;;;;;;;6.95;2.60;;;;;;;9.08;100.00;98177.72;12179962;19;20015;-82
2023/12/13 02:43:22;;;;;;;3.42;1.63;;;;;;;9.04;100.00;98171.13;12204238;19;20015;-81
2023/12/13 02:47:25;;;;;;;6.57;2.22;;;;;;;9.06;100.00;98175.25;12204260;19;20018;-82
2023/12/13 02:51:27;;;;;;;6.40;1.60;;;;;;;9.08;100.00;98162.06;12201736;19;20014;-82
2023/12/13 02:55:28;;;;;;;7.97;2.75;;;;;;;9.00;100.00;98164.56;12221914;19;20022;-82
2023/12/13 02:59:30;;;;;;;9.65;2.58;;;;;;;8.85;100.00;98152.50;12226467;19;20010;-83
2023/12/13 03:03:33;;;;;;;5.60;1.65;;;;;;;8.74;100.00;98153.63;12205161;19;20074;-83
2023/12/13 03:07:34;;;;;;;10.15;2.47;;;;;;;8.65;100.00;98142.38;12224873;19;20024;-82
2023/12/13 03:11:39;;;;;;;5.75;1.95;;;;;;;8.63;100.00;98147.34;12219957;19;20042;-82
2023/12/13 03:15:41;;;;;;;7.60;2.10;;;;;;;8.56;100.00;98133.06;12200333;19;20009;-82
2023/12/13 03:19:43;;;;;;;6.43;1.67;;;;;;;8.54;100.00;98129.81;12229505;19;20517;-83
2023/12/13 03:23:44;;;;;;;6.60;1.57;;;;;;;8.64;100.00;98139.94;12206569;19;20003;-81
2023/12/13 03:27:46;;;;;;;8.50;1.88;;;;;;;8.75;100.00;98135.25;12227082;19;20080;-81
2023/12/13 03:31:48;;;;;;;5.55;1.45;;;;;;;8.85;100.00;98124.22;12233347;19;20597;-83
2023/12/13 03:35:50;;;;;;;5.20;2.17;;;;;;;8.96;100.00;98125.84;12191981;19;20014;-83
2023/12/13 03:39:52;;;;;;;4.18;1.30;;;;;;;9.03;100.00;98123.59;12236070;19;20482;-82
2023/12/13 03:43:53;;;;;;;5.95;1.27;;;;;;;9.06;100.00;98108.47;12233839;19;20866;-83
2023/12/13 03:47:55;;;;;;;4.32;1.58;;;;;;;9.11;100.00;98114.78;12205423;19;20022;-83
2023/12/13 03:51:57;;;;;;;6.13;2.15;;;;;;;9.09;100.00;98111.50;12232856;19;20010;-81
2023/12/13 03:55:59;;;;;;;4.97;1.05;;;;;;;9.08;100.00;98101.63;12231698;19;20011;-84
2023/12/13 04:00:01;;;;;;;8.10;1.50;;;;;;;9.15;100.00;98109.53;12193258;19;20026;-83
2023/12/13 04:04:12;;;;;;;5.97;1.25;;;;;;;9.20;100.00;98104.03;12218045;19;20086;-83
2023/12/13 04:08:15;;;;;;;5.53;1.50;;;;;;;9.20;100.00;98103.22;12227096;19;20014;-82
2023/12/13 04:12:17;;;;;;;7.85;1.27;;;;;;;9.07;100.00;98101.88;12202115;19;20011;-81
2023/12/13 04:16:18;;;;;;;2.30;1.00;;;;;;;8.94;100.00;98091.50;12218771;19;20674;-82
2023/12/13 04:20:20;;;;;;;5.88;1.42;;;;;;;8.83;100.00;98088.81;12210747;19;20014;-81
2023/12/13 04:24:22;;;;;;;2.33;1.13;;;;;;;8.78;100.00;98090.75;12189557;19;20014;-83
2023/12/13 04:28:24;;;;;;;4.80;1.52;;;;;;;8.81;100.00;98096.50;12211942;19;20020;-82
2023/12/13 04:32:26;;;;;;;8.73;1.80;;;;;;;8.82;100.00;98091.84;12210097;19;20014;-82
2023/12/13 04:36:28;;;;;;;5.82;1.25;;;;;;;8.83;100.00;98099.81;12183582;19;20003;-83
2023/12/13 04:40:29;;;;;;;6.80;1.10;;;;;;;8.76;100.00;98106.69;12246845;19;20002;-80
2023/12/13 04:44:31;;;;;;;8.20;1.60;;;;;;;8.66;100.00;98096.56;12224032;19;20021;-84
2023/12/13 04:48:33;;;;;;;2.95;0.75;;;;;;;8.64;100.00;98094.09;12188314;19;20014;-84
2023/12/13 04:52:35;;;;;;;4.15;1.42;;;;;;;8.66;100.00;98094.63;12210901;19;20347;-82
2023/12/13 04:56:37;;;;;;;2.58;1.10;;;;;;;8.62;100.00;98099.03;12206500;19;20017;-84
2023/12/13 05:00:39;;;;;;;4.72;1.33;;;;;;;8.55;100.00;98094.94;12185425;19;20017;-82
2023/12/13 05:04:41;;;;;;;1.80;1.08;;;;;;;8.47;100.00;98090.00;12204989;19;20011;-84
2023/12/13 05:08:43;;;;;;;4.87;1.23;;;;;;;8.40;100.00;98084.81;12182816;19;20018;-83
2023/12/13 05:12:44;;;;;;;7.75;1.60;;;;;;;8.44;100.00;98085.88;12204136;19;20376;-83
2023/12/13 05:16:46;;;;;;;8.43;1.60;;;;;;;8.44;100.00;98083.16;12204531;19;20014;-83
2023/12/13 05:20:49;;;;;;;4.70;1.02;;;;;;;8.40;100.00;98077.41;12184322;19;20038;-83
2023/12/13 05:24:51;;;;;;;4.20;1.38;;;;;;;8.49;100.00;98069.41;12204386;19;20011;-83
2023/12/13 05:28:52;;;;;;;7.72;1.35;;;;;;;8.56;100.00;98074.59;12202558;19;20482;-83
2023/12/13 05:32:54;;;;;;;5.53;1.83;;;;;;;8.70;100.00;98072.91;12184121;19;20007;-83
2023/12/13 05:36:56;;;;;;;6.53;1.52;;;;;;;8.83;100.00;98076.97;12201805;19;20633;-83
2023/12/13 05:40:59;;;;;;;3.60;1.50;;;;;;;8.98;100.00;98070.59;12205558;19;20015;-82
2023/12/13 05:45:01;;;;;;;4.57;1.52;;;;;;;9.00;100.00;98071.97;12189593;19;20018;-83
2023/12/13 05:49:06;;;;;;;6.55;1.40;;;;;;;8.93;100.00;98076.97;12200762;19;20003;-82
2023/12/13 05:53:11;;;;;;;5.13;1.80;;;;;;;8.83;100.00;98071.50;12205982;19;20006;-83
2023/12/13 05:57:13;;;;;;;5.55;1.38;;;;;;;8.78;100.00;98066.84;12182191;19;20394;-84
2023/12/13 06:01:15;;;;;;;8.80;1.30;;;;;;;8.79;100.00;98059.44;12204478;19;20016;-83
2023/12/13 06:05:17;;;;;;;5.25;1.40;;;;;;;8.87;100.00;98061.59;12199694;19;20059;-81
2023/12/13 06:09:20;;;;;;;4.80;1.60;;;;;;;8.93;100.00;98068.72;12179765;19;20735;-82
2023/12/13 06:13:22;;;;;;;4.72;1.75;;;;;;;8.83;100.00;98072.34;12200920;19;20847;-83
2023/12/13 06:17:24;;;;;;;4.68;1.65;;;;;;;8.70;100.00;98072.09;12201398;19;20018;-83
2023/12/13 06:21:26;;;;;;;5.03;1.27;;;;;;;8.60;100.00;98062.81;12180296;19;20046;-83
2023/12/13 06:25:28;;;;;;;8.83;1.67;;;;;;;8.52;100.00;98059.81;12199076;19;20002;-82
2023/12/13 06:29:30;;;;;;;2.05;1.10;;;;;;;8.47;100.00;98066.13;12209136;19;20038;-81
2023/12/13 06:33:31;;;;;;;7.05;1.38;;;;;;;8.48;100.00;98065.03;12179292;19;20018;-83
2023/12/13 06:37:33;;;;;;;11.23;1.50;;;;;;;8.43;100.00;98054.06;12205895;19;20007;-84
2023/12/13 06:41:36;;;;;;;4.63;1.40;;;;;;;8.37;100.00;98046.91;12207067;19;20010;-83
2023/12/13 06:45:38;;;;;;;6.75;1.48;;;;;;;8.34;100.00;98040.06;12186594;19;20010;-83
2023/12/13 06:49:40;;;;;;;10.35;1.60;;;;;;;8.35;100.00;98054.59;12203689;19;20070;-83
2023/12/13 06:53:42;;;;;;;8.80;1.55;;;;;;;8.46;100.00;98039.78;12183659;19;20074;-83
2023/12/13 06:57:43;;;;;;;5.88;1.27;;;;;;;8.55;100.00;98049.09;12208289;19;20490;-83
2023/12/13 07:01:45;;;;;;;5.72;1.33;;;;;;;8.70;100.00;98045.47;12213298;19;20033;-85
2023/12/13 07:05:47;;;;;;;7.60;1.58;;;;;;;8.81;100.00;98051.75;12186486;19;20007;-84
2023/12/13 07:09:49;;;;;;;6.90;1.63;;;;;;;8.89;100.00;98048.38;12203627;19;20010;-84
2023/12/13 07:13:51;;;;;;;4.72;1.02;;;;;;;9.02;100.00;98044.22;12199982;19;20029;-81
2023/12/13 07:17:53;;;;;;;3.57;1.10;;;;;;;9.06;100.00;98039.81;12186852;19;20344;-83
2023/12/13 07:21:55;;;;;;;4.22;1.27;;;;;;;9.15;100.00;98035.34;12211916;19;20003;-86
2023/12/13 07:25:57;;;;;;;4.82;1.05;;;;;;;9.25;100.00;98031.72;12208650;19;20006;-83
2023/12/13 07:29:59;;;;;;;5.60;1.50;;;;;;;9.31;100.00;98031.41;12182357;19;20032;-85
2023/12/13 07:34:02;;;;;;;3.25;1.02;;;;;;;9.38;100.00;98028.34;12211085;19;20010;-83
2023/12/13 07:38:04;;;;;;;4.63;1.20;;;;;;;9.46;100.00;98032.38;12220430;19;20014;-85
2023/12/13 07:42:06;;;;;;;2.72;1.45;;;;;;;9.52;100.00;98032.09;12214068;19;20022;-84
2023/12/13 07:46:08;;;;;;;5.75;1.60;;;;;;;9.56;100.00;98035.91;12216510;19;20641;-83
2023/12/13 07:50:11;;;;;;;7.45;1.70;;;;;;;9.61;100.00;98039.69;12214663;19;20702;-85
2023/12/13 07:54:16;;;;;;;4.73;1.53;;;;;;;9.61;100.00;98040.53;12193201;19;20485;-82
2023/12/13 07:58:18;;;;;;;4.93;1.80;;;;;;;9.53;100.00;98033.72;12218339;19;20011;-83
2023/12/13 08:02:21;;;;;;;6.07;2.03;;;;;;;9.53;100.00;98035.66;12222644;19;20009;-84
2023/12/13 08:06:24;;;;;;;4.28;1.48;;;;;;;9.60;100.00;98038.88;12241506;19;20050;-82
2023/12/13 08:10:26;;;;;;;6.28;1.77;;;;;;;9.65;100.00;98030.59;12236043;19;20018;-82
2023/12/13 08:14:30;;;;;;;2.85;1.42;;;;;;;9.64;100.00;98039.13;12230874;19;20007;-82
2023/12/13 08:18:32;;;;;;;6.07;1.38;;;;;;;9.55;100.00;98041.69;12206337;19;20011;-84
2023/12/13 08:22:34;;;;;;;4.63;1.80;;;;;;;9.53;100.00;98039.22;12219877;19;20129;-86
2023/12/13 08:26:36;;;;;;;6.70;1.42;;;;;;;9.61;100.00;98046.03;12216409;19;20015;-86
2023/12/13 08:30:38;;;;;;;5.20;1.30;;;;;;;9.70;100.00;98038.81;12192250;19;20016;-85
2023/12/13 08:34:40;;;;;;;11.07;2.23;;;;;;;9.70;100.00;98043.50;12214844;19;20010;-85
2023/12/13 08:38:42;;;;;;;6.35;1.80;;;;;;;9.75;100.00;98044.25;12191185;19;20011;-84
2023/12/13 08:42:44;;;;;;;5.20;1.90;;;;;;;9.89;100.00;98032.59;12215383;19;20010;-85
2023/12/13 08:46:47;;;;;;;7.03;2.30;;;;;;;9.97;100.00;98034.75;12211206;19;20010;-82
2023/12/13 08:50:49;;;;;;;4.75;2.22;;;;;;;9.96;100.00;98038.59;12193363;19;20019;-86
2023/12/13 08:54:51;;;;;;;5.93;2.70;;;;;;;10.02;100.00;98038.28;12200056;19;20092;-86
2023/12/13 08:58:53;;;;;;;6.40;2.28;;;;;;;10.02;100.00;98037.44;12215588;19;20014;-85
2023/12/13 09:02:54;;;;;;;7.30;3.20;;;;;;;10.06;100.00;98044.00;12201183;19;20047;-85
2023/12/13 09:06:56;;;;;;;5.30;2.53;;;;;;;10.18;100.00;98043.63;12220287;19;20018;-85
2023/12/13 09:10:59;;;;;;;4.78;2.40;;;;;;;10.19;100.00;98064.53;12217789;19;20017;-85
2023/12/13 09:15:00;;;;;;;5.87;3.53;;;;;;;10.09;100.00;98064.63;12196497;19;20000;-83
2023/12/13 09:19:02;;;;;;;6.43;3.55;;;;;;;9.62;100.00;98068.88;12215973;19;20019;-86
2023/12/13 09:23:04;;;;;;;5.90;4.23;;;;;;;9.43;100.00;98065.94;12215616;19;20016;-86
2023/12/13 09:27:06;;;;;;;5.90;4.17;;;;;;;9.36;100.00;98063.53;12197197;19;20056;-83
2023/12/13 09:31:08;;;;;;;5.57;4.65;;;;;;;9.38;100.00;98061.31;12234473;19;20021;-83
2023/12/13 09:35:10;;;;;;;10.10;5.68;;;;;;;9.47;100.00;98056.84;12236077;19;20096;-84
2023/12/13 09:39:15;;;;;;;12.57;5.82;;;;;;;9.61;100.00;98056.19;12215237;19;20003;-84
2023/12/13 09:43:18;;;;;;;9.48;6.30;;;;;;;9.61;100.00;98058.94;12219335;19;20023;-85
2023/12/13 09:47:21;;;;;;;11.55;7.20;;;;;;;9.79;100.00;98063.78;12215592;19;20014;-84
2023/12/13 09:51:24;;;;;;;8.07;5.63;;;;;;;10.00;100.00;98061.69;12189631;19;20010;-84
2023/12/13 09:55:25;;;;;;;8.25;5.35;;;;;;;9.97;100.00;98057.56;12209456;19;20011;-85
2023/12/13 09:59:28;;;;;;;7.28;5.13;;;;;;;9.97;100.00;98063.06;12203546;19;20701;-83
2023/12/13 10:03:31;;;;;;;9.02;4.82;;;;;;;10.05;100.00;98069.88;12187231;19;20035;-85
2023/12/13 10:07:33;;;;;;;10.35;5.30;;;;;;;10.16;100.00;98062.34;12205287;19;20028;-84
2023/12/13 10:11:35;;;;;;;9.30;4.85;;;;;;;10.23;100.00;98071.94;12210686;19;20002;-84
2023/12/13 10:15:37;;;;;;;8.77;4.60;;;;;;;10.23;100.00;98065.56;12187101;19;20615;-84
2023/12/13 10:19:39;;;;;;;11.55;4.70;;;;;;;10.27;100.00;98063.94;12209215;19;20034;-87
2023/12/13 10:23:41;;;;;;;9.07;4.20;;;;;;;10.25;100.00;98057.84;12184213;19;20006;-85
2023/12/13 10:27:43;;;;;;;5.78;2.95;;;;;;;10.33;100.00;98053.69;12204188;19;20029;-85
2023/12/13 10:31:45;;;;;;;4.55;3.30;;;;;;;10.45;100.00;98048.59;12204277;19;20400;-85
2023/12/13 10:35:51;;;;;;;11.40;4.95;;;;;;;10.54;100.00;98065.31;12182990;19;20007;-85
2023/12/13 10:39:56;;;;;;;6.72;2.63;;;;;;;10.68;100.00;98061.56;12206496;19;20021;-83
2023/12/13 10:43:58;;;;;;;5.28;2.60;;;;;;;10.62;100.00;98059.13;12205646;19;20003;-85
2023/12/13 10:48:07;;;;;;;6.13;2.42;;;;;;;10.67;100.00;98059.09;12183135;19;20392;-84
2023/12/13 10:52:11;;;;;;;5.60;2.72;;;;;;;10.77;100.00;98058.97;12200720;19;20015;-83
2023/12/13 10:56:14;;;;;;;6.90;2.53;;;;;;;10.88;100.00;98054.16;12202121;19;20007;-86
2023/12/13 11:00:17;;;;;;;8.30;3.00;;;;;;;10.88;100.00;98063.22;12181247;19;20006;-83
2023/12/13 11:04:20;;;;;;;7.32;2.33;;;;;;;10.93;100.00;98063.19;12206919;19;20010;-83
2023/12/13 11:08:21;;;;;;;;;;;;;;;10.92;100.00;98067.06;12207360;19;20366;-84
2023/12/13 11:12:24;;;;;;;7.10;2.50;;;;;;;10.88;100.00;98062.41;12198651;19;19925;-84
2023/12/13 11:16:26;;;;;;;3.97;2.17;;;;;;;10.93;100.00;98065.94;12221006;19;20021;-86
2023/12/13 11:20:28;;;;;;;5.13;2.38;;;;;;;10.89;100.00;98072.34;12223512;19;20010;-86
2023/12/13 11:24:36;;;;;;;4.93;1.60;;;;;;;10.94;100.00;98064.00;12206170;19;20006;-86
2023/12/13 11:28:38;;;;;;;4.90;1.48;;;;;;;10.97;100.00;98062.59;12270424;19;20010;-81
2023/12/13 11:32:45;;;;;;;2.28;1.27;;;;;;;10.97;100.00;98057.88;12280226;19;20011;-81
2023/12/13 11:36:47;;;;;;;4.32;1.38;;;;;;;10.93;100.00;98056.84;12246996;19;20031;-80
2023/12/13 11:40:49;;;;;;;4.30;1.35;;;;;;;10.84;100.00;98059.44;12214045;19;20056;-82
2023/12/13 11:44:51;;;;;;;5.87;1.60;;;;;;;10.69;100.00;98057.69;12185899;19;20014;-81
2023/12/13 11:48:53;;;;;;;6.70;1.33;;;;;;;10.52;100.00;98062.84;12212241;19;20118;-84
2023/12/13 11:52:54;;;;;;;2.40;1.30;;;;;;;10.50;100.00;98056.81;12209650;19;20031;-81
2023/12/13 11:56:56;;;;;;;2.65;1.02;;;;;;;10.53;100.00;98053.47;12184978;19;20007;-81
2023/12/13 12:00:59;;;;;;;2.35;1.20;;;;;;;10.56;100.00;98049.28;12203207;19;20463;-82
2023/12/13 12:05:06;;;;;;;4.35;1.30;;;;;;;10.71;100.00;98049.16;12210055;19;20013;-83
2023/12/13 12:09:08;;;;;;;6.70;1.30;;;;;;;10.83;100.00;98068.84;12186361;19;20004;-82
2023/12/13 12:13:10;;;;;;;3.67;1.60;;;;;;;10.92;100.00;98058.78;12211906;19;20003;-83
2023/12/13 12:17:20;;;;;;;3.70;1.13;;;;;;;10.78;100.00;98055.09;12205918;19;20086;-84
2023/12/13 12:21:22;;;;;;;4.78;1.20;;;;;;;10.62;100.00;98051.72;12187943;19;20025;-83
2023/12/13 12:25:28;;;;;;;2.78;1.50;;;;;;;10.68;100.00;98067.06;12207327;19;20023;-80
2023/12/13 12:29:30;;;;;;;3.75;1.10;;;;;;;10.64;100.00;98056.91;12208462;19;20010;-81
2023/12/13 12:33:32;;;;;;;4.05;1.08;;;;;;;10.56;100.00;98065.81;12188348;19;20018;-81
2023/12/13 12:37:34;;;;;;;4.47;1.43;;;;;;;10.52;100.00;98059.25;12210204;19;20003;-82
2023/12/13 12:41:36;;;;;;;3.57;1.30;;;;;;;10.57;100.00;98050.94;12205054;19;20006;-82
2023/12/13 12:45:38;;;;;;;2.57;1.10;;;;;;;10.57;100.00;98045.44;12188046;19;20082;-83
2023/12/13 12:49:40;;;;;;;3.65;1.27;;;;;;;10.52;100.00;98045.50;12211792;19;20010;-84
2023/12/13 12:53:42;;;;;;;4.75;1.55;;;;;;;10.39;100.00;98047.03;12211684;19;20042;-83
2023/12/13 12:57:45;;;;;;;2.10;1.30;;;;;;;10.30;100.00;98043.25;12189329;19;20014;-83
2023/12/13 13:01:47;;;;;;;4.75;1.45;;;;;;;10.17;100.00;98044.72;12207358;19;20833;-84
2023/12/13 13:05:49;;;;;;;4.40;1.42;;;;;;;10.02;100.00;98038.28;12208427;19;20006;-81
2023/12/13 13:09:51;;;;;;;5.32;1.45;;;;;;;9.94;100.00;98040.81;12191595;19;20071;-83
2023/12/13 13:13:53;;;;;;;3.40;1.60;;;;;;;9.87;100.00;98045.81;12210655;19;20003;-83
2023/12/13 13:17:55;;;;;;;4.97;1.63;;;;;;;9.82;100.00;98049.47;12214415;19;20118;-83
2023/12/13 13:21:57;;;;;;;2.72;1.33;;;;;;;9.80;100.00;98052.47;12192201;19;20006;-84
2023/12/13 13:26:10;;;;;;;2.75;1.33;;;;;;;9.77;100.00;98044.00;12210729;19;20381;-85
2023/12/13 13:30:13;;;;;;;7.72;1.35;;;;;;;9.74;100.00;98045.38;12212774;19;20706;-84
2023/12/13 13:34:16;;;;;;;3.65;1.13;;;;;;;9.74;100.00;98047.31;12206539;19;20018;-86
2023/12/13 13:38:21;;;;;;;;;;;;;;;9.73;100.00;98045.69;12214395;19;20767;-85
2023/12/13 13:42:24;;;;;;;3.20;0.95;;;;;;;9.79;100.00;98044.53;12196346;19;19931;-84
2023/12/13 13:46:25;;;;;;;4.25;0.95;;;;;;;9.90;100.00;98035.06;12218304;19;20047;-85
2023/12/13 13:50:27;;;;;;;4.72;1.02;;;;;;;9.98;100.00;98031.69;12214378;19;20362;-84
2023/12/13 13:54:29;;;;;;;2.70;1.10;;;;;;;10.08;100.00;98035.44;12198604;19;20011;-83
2023/12/13 13:58:31;;;;;;;7.90;3.08;;;;;;;10.16;100.00;98032.06;12217371;19;20022;-83
2023/12/13 14:02:33;;;;;;;4.45;1.73;;;;;;;10.20;100.00;98028.47;12215065;19;20505;-83
2023/12/13 14:06:35;;;;;;;2.58;1.20;;;;;;;10.21;100.00;98032.84;12188516;19;20018;-84
2023/12/13 14:10:37;;;;;;;2.70;1.30;;;;;;;10.22;100.00;98034.47;12217666;19;20019;-85
2023/12/13 14:14:39;;;;;;;2.08;1.13;;;;;;;10.16;100.00;98037.59;12217459;19;20011;-85
2023/12/13 14:18:40;;;;;;;5.78;1.58;;;;;;;10.05;100.00;98039.59;12188840;19;20026;-84
2023/12/13 14:22:42;;;;;;;4.22;1.85;;;;;;;9.94;100.00;98047.16;12210950;19;20014;-85
2023/12/13 14:26:44;;;;;;;5.53;1.70;;;;;;;9.82;100.00;98047.53;12209635;19;20011;-84
2023/12/13 14:30:46;;;;;;;10.50;1.70;;;;;;;9.72;100.00;98046.78;12187479;19;20003;-84
2023/12/13 14:34:48;;;;;;;3.90;1.73;;;;;;;9.67;100.00;98047.66;12208350;19;20740;-83
2023/12/13 14:38:50;;;;;;;7.15;1.80;;;;;;;9.69;100.00;98053.66;12206950;19;20010;-85
2023/12/13 14:42:52;;;;;;;4.18;1.25;;;;;;;9.76;100.00;98067.13;12191346;19;20031;-84
2023/12/13 14:46:55;;;;;;;3.03;1.63;;;;;;;9.81;100.00;98069.81;12206183;19;20416;-84
2023/12/13 14:50:56;;;;;;;3.67;1.55;;;;;;;9.86;100.00;98077.19;12204625;19;20511;-86
2023/12/13 14:54:58;;;;;;;5.20;1.27;;;;;;;9.91;100.00;98079.94;12183751;19;20091;-86
2023/12/13 14:59:00;;;;;;;7.97;2.43;;;;;;;9.89;100.00;98077.44;12226746;19;20023;-83
2023/12/13 15:03:04;;;;;;;4.85;1.48;;;;;;;9.87;100.00;98074.16;12245930;19;20010;-85
2023/12/13 15:07:06;;;;;;;4.35;1.50;;;;;;;9.80;100.00;98084.69;12194824;19;20011;-85
2023/12/13 15:11:09;;;;;;;10.27;1.80;;;;;;;9.70;100.00;98085.59;12214013;19;20031;-84
2023/12/13 15:15:11;;;;;;;7.18;1.52;;;;;;;9.53;100.00;98085.97;12204595;19;20014;-85
2023/12/13 15:19:13;;;;;;;4.57;2.03;;;;;;;9.38;100.00;98088.81;12186122;19;20006;-85
2023/12/13 15:23:18;;;;;;;7.72;2.20;;;;;;;9.29;100.00;98096.00;12211088;19;20287;-86
2023/12/13 15:27:20;;;;;;;7.93;2.10;;;;;;;9.30;100.00;98108.66;12187001;19;20015;-85
2023/12/13 15:31:23;;;;;;;5.40;2.10;;;;;;;9.31;100.00;98104.78;12206558;19;20477;-84
2023/12/13 15:35:25;;;;;;;6.88;2.63;;;;;;;9.34;100.00;98116.06;12210559;19;20018;-85
2023/12/13 15:39:27;;;;;;;9.90;3.17;;;;;;;9.35;100.00;98105.88;12183416;19;20011;-84
2023/12/13 15:43:29;;;;;;;4.95;2.97;;;;;;;9.29;100.00;98112.50;12216125;19;20107;-86
2023/12/13 15:47:32;;;;;;;5.03;2.33;;;;;;;9.27;100.00;98114.72;12212357;19;20010;-85
2023/12/13 15:51:34;;;;;;;9.18;4.20;;;;;;;9.19;100.00;98120.78;12188393;19;20024;-88
2023/12/13 15:55:36;;;;;;;9.68;3.15;;;;;;;9.03;100.00;98123.59;12207165;19;20015;-85
2023/12/13 15:59:38;;;;;;;6.75;2.08;;;;;;;8.84;100.00;98128.91;12221273;19;20011;-85
2023/12/13 16:03:39;;;;;;;5.75;1.67;;;;;;;8.65;100.00;98136.09;12201886;19;20010;-84
2023/12/13 16:07:43;;;;;;;5.07;2.20;;;;;;;8.47;100.00;98128.44;12224509;19;20018;-86
2023/12/13 16:11:45;;;;;;;4.25;1.42;;;;;;;8.31;100.00;98135.84;12227142;19;20035;-84
2023/12/13 16:15:47;;;;;;;6.55;1.45;;;;;;;8.18;100.00;98137.25;12204114;19;20465;-86
2023/12/13 16:19:49;;;;;;;2.15;1.27;;;;;;;8.13;100.00;98145.47;12217876;19;20031;-84
2023/12/13 16:23:51;;;;;;;3.00;1.50;;;;;;;8.16;100.00;98145.72;12215729;19;20473;-85
2023/12/13 16:27:52;;;;;;;5.70;1.83;;;;;;;8.23;100.00;98150.94;12199930;19;20018;-85
2023/12/13 16:31:54;;;;;;;7.07;2.15;;;;;;;8.30;100.00;98151.50;12225315;19;21554;-85
2023/12/13 16:35:56;;;;;;;4.55;2.25;;;;;;;8.31;100.00;98161.38;12219603;19;20009;-85
2023/12/13 16:39:58;;;;;;;7.00;1.90;;;;;;;8.32;100.00;98162.19;12193455;19;20577;-85
2023/12/13 16:44:02;;;;;;;6.35;1.80;;;;;;;8.31;100.00;98164.09;12215777;19;20378;-84
2023/12/13 16:48:05;;;;;;;4.53;1.83;;;;;;;8.33;100.00;98172.91;12215933;19;20007;-84
2023/12/13 16:52:06;;;;;;;5.27;1.70;;;;;;;8.35;100.00;98165.19;12193147;19;20010;-84
2023/12/13 16:56:08;;;;;;;4.53;1.67;;;;;;;8.37;100.00;98178.66;12214052;19;20064;-84
2023/12/13 17:00:11;;;;;;;3.58;1.55;;;;;;;8.42;100.00;98184.19;12213265;19;20078;-85
2023/12/13 17:04:13;;;;;;;5.15;1.85;;;;;;;8.46;100.00;98188.00;12192275;19;20007;-85
2023/12/13 17:08:14;;;;;;;5.35;1.52;;;;;;;8.50;100.00;98194.59;12207684;19;20027;-85
2023/12/13 17:12:19;;;;;;;7.03;2.00;;;;;;;8.49;100.00;98198.44;12192368;19;20007;-83
2023/12/13 17:16:21;;;;;;;5.70;1.80;;;;;;;8.48;100.00;98212.44;12216011;19;20462;-83
2023/12/13 17:20:23;;;;;;;7.18;1.60;;;;;;;8.50;100.00;98215.72;12221171;19;20426;-85
2023/12/13 17:24:31;;;;;;;6.28;2.00;;;;;;;8.48;100.00;98221.50;12202974;19;20010;-87
2023/12/13 17:28:33;;;;;;;5.22;1.75;;;;;;;8.45;100.00;98230.28;12217474;19;20014;-84
2023/12/13 17:32:35;;;;;;;5.00;2.03;;;;;;;8.46;100.00;98237.41;12217753;19;20025;-84
2023/12/13 17:36:37;;;;;;;4.40;2.20;;;;;;;8.49;100.00;98238.81;12196723;19;20082;-85
2023/12/13 17:40:39;;;;;;;6.43;2.35;;;;;;;8.50;100.00;98244.00;12218443;19;20006;-84
2023/12/13 17:44:41;;;;;;;5.25;2.63;;;;;;;8.54;100.00;98249.78;12223489;19;20018;-86
2023/12/13 17:48:43;;;;;;;6.85;2.30;;;;;;;8.56;100.00;98245.63;12197854;19;20014;-85
2023/12/13 17:52:44;;;;;;;4.95;2.60;;;;;;;8.60;100.00;98257.75;12219063;19;20014;-85
2023/12/13 17:56:46;;;;;;;7.53;3.85;;;;;;;8.65;100.00;98257.72;12217617;19;20419;-85
2023/12/13 18:00:50;;;;;;;7.30;2.75;;;;;;;8.70;100.00;98264.31;12194638;19;20002;-85
2023/12/13 18:04:52;;;;;;;7.03;2.60;;;;;;;8.75;100.00;98267.91;12217649;19;20007;-85
2023/12/13 18:08:54;;;;;;;8.88;3.67;;;;;;;8.77;100.00;98281.34;12212388;19;20003;-82
2023/12/13 18:12:56;;;;;;;8.23;3.63;;;;;;;8.79;100.00;98288.22;12193325;19;20002;-84
2023/12/13 18:16:58;;;;;;;7.43;3.17;;;;;;;8.78;100.00;98289.31;12213171;19;20034;-85
2023/12/13 18:21:02;;;;;;;11.70;3.90;;;;;;;8.75;100.00;98289.06;12213644;19;20007;-85
2023/12/13 18:25:04;;;;;;;4.78;3.10;;;;;;;8.70;100.00;98294.53;12193601;19;20091;-86
2023/12/13 18:29:06;;;;;;;8.00;3.03;;;;;;;8.64;100.00;98300.00;12237814;19;20010;-84
2023/12/13 18:33:08;;;;;;;11.50;3.67;;;;;;;8.64;100.00;98301.94;12220235;19;20014;-84
2023/12/13 18:37:10;;;;;;;7.50;3.53;;;;;;;8.60;100.00;98298.09;12192440;19;20046;-85
2023/12/13 18:41:12;;;;;;;7.50;3.53;;;;;;;8.57;100.00;98310.47;12217823;19;20011;-83
2023/12/13 18:45:15;;;;;;;7.75;3.00;;;;;;;8.54;100.00;98308.25;12214209;19;20034;-83